Friday, January 19, 2018, 10:37 AM EST
Back to Local

KFWN, Sussex Airport

Location: Sussex, NJ, United States Lat: 41.2
Local Time: 10:37 AM EST (15:37 GMT) Lon: -74.633
Time Zone: US/Eastern Elev: 419 ft

Show me the last for .
Show Decoded

2018-01-19 09:53 METAR KFWN 191453Z AUTO 00000KT 8SM CLR M12/M12 A3004 RMK AO2 SLP181 T11171122
                 52005 =
2018-01-19 08:53 METAR KFWN 191353Z AUTO 00000KT 7SM CLR M15/M17 A3004 RMK AO2 SLP180 T11501172 =
2018-01-19 07:53 METAR KFWN 191253Z AUTO 00000KT 5SM BR CLR M18/M20 A3003 RMK AO2 SLP178
                 T11781200 =
2018-01-19 06:53 METAR KFWN 191153Z AUTO 00000KT 7SM CLR M17/M19 A3003 RMK AO2 SLP176 I6000
                 T11671189 11133 21178 50002 =
2018-01-19 05:53 METAR KFWN 191053Z AUTO 00000KT 7SM CLR M17/M18 A3003 RMK AO2 SLP177 T11671183 =
2018-01-19 04:53 METAR KFWN 190953Z AUTO 00000KT 8SM CLR M16/M18 A3003 RMK AO2 SLP175 T11611178 =
2018-01-19 03:53 METAR KFWN 190853Z AUTO 00000KT 8SM CLR M16/M18 A3002 RMK AO2 SLP173 I3000
                 T11611178 53002 =
2018-01-19 02:53 METAR KFWN 190753Z AUTO 00000KT 8SM CLR M16/M17 A3002 RMK AO2 SLP174 I1000
                 T11561167 =
2018-01-19 01:53 METAR KFWN 190653Z AUTO 00000KT 8SM CLR M14/M16 A3001 RMK AO2 SLP169 T11441161 =
2018-01-19 00:53 METAR KFWN 190553Z AUTO 00000KT 8SM CLR M14/M16 A3002 RMK AO2 SLP171 T11391156
                 11039 21144 58016 =
2018-01-18 23:53 METAR KFWN 190453Z AUTO 00000KT 9SM CLR M13/M14 A3004 RMK AO2 SLP180 T11281144
                 410111200 =
2018-01-18 22:53 METAR KFWN 190353Z AUTO 00000KT 8SM CLR M12/M13 A3006 RMK AO2 SLP185 T11171133 =
2018-01-18 21:53 METAR KFWN 190253Z AUTO 00000KT 9SM CLR M11/M14 A3006 RMK AO2 SLP188 T11111139
                 53019 =
2018-01-18 20:53 METAR KFWN 190153Z AUTO 00000KT 10SM CLR M07/M12 A3004 RMK AO2 SLP181 T10721117
                 =
2018-01-18 19:53 METAR KFWN 190053Z AUTO 00000KT 10SM CLR M09/M13 A3002 RMK AO2 SLP175 T10891128
                 =
2018-01-18 18:53 METAR KFWN 182353Z AUTO 00000KT 10SM CLR M04/M12 A3001 RMK AO2 SLP169 T10391117
                 11011 21044 53021 =
2018-01-18 17:53 METAR KFWN 182253Z AUTO VRB03KT 10SM CLR M03/M12 A2998 RMK AO2 SLP160 T10331117
                 =
2018-01-18 16:53 METAR KFWN 182153Z AUTO VRB04KT 10SM CLR M03/M12 A2996 RMK AO2 SLP152 T10281122
                 =
2018-01-18 15:53 METAR KFWN 182053Z AUTO 30005KT 10SM CLR M02/M12 A2995 RMK AO2 SLP148 T10221122
                 55002 =
2018-01-18 14:53 METAR KFWN 181953Z AUTO VRB06G16KT 10SM CLR M02/M12 A2993 RMK AO2 SLP143
                 T10171122 =
2018-01-18 13:53 METAR KFWN 181853Z AUTO VRB06KT 10SM CLR M02/M13 A2994 RMK AO2 SLP145 T10171128
                 $ =
2018-01-18 12:53 METAR KFWN 181753Z AUTO 29006KT 10SM CLR M03/M13 A2995 RMK AO2 SLP150 T10281133
                 11028 21200 58032 $ =
2018-01-18 11:53 METAR KFWN 181653Z AUTO VRB04KT 10SM CLR M04/M14 A3000 RMK AO2 SLP165 T10391139
                 $ =
2018-01-18 10:53 METAR KFWN 181553Z AUTO VRB05KT 10SM CLR M05/M14 A3004 RMK AO2 SLP180 T10501139
                 $ =

Support USWX by starting your Amazon purchase here.